createdAt,value
2022-10-18T00:00:20.473Z,5.03
2022-10-18T00:02:47.406Z,5.02
2022-10-18T00:05:14.398Z,5.01
2022-10-18T00:07:41.242Z,4.99
2022-10-18T00:10:08.947Z,4.94
2022-10-18T00:12:37.849Z,4.91
2022-10-18T00:15:07.039Z,4.90
2022-10-18T00:17:38.869Z,4.89
2022-10-18T00:20:07.047Z,4.84
2022-10-18T00:22:39.100Z,4.81
2022-10-18T00:25:07.650Z,4.69
2022-10-18T00:27:35.092Z,4.70
2022-10-18T00:30:01.903Z,4.62
2022-10-18T00:32:29.060Z,4.62
2022-10-18T00:34:56.177Z,4.61
2022-10-18T00:37:22.925Z,4.57
2022-10-18T00:39:50.296Z,4.59
2022-10-18T00:42:21.733Z,4.58
2022-10-18T00:44:51.543Z,4.53
2022-10-18T00:47:19.848Z,4.50
2022-10-18T00:49:51.768Z,4.50
2022-10-18T00:52:24.211Z,4.46
2022-10-18T00:54:52.586Z,4.44
2022-10-18T00:57:19.590Z,4.39
2022-10-18T00:59:47.181Z,4.39
2022-10-18T01:02:18.511Z,4.33
2022-10-18T01:04:46.536Z,4.21
2022-10-18T01:07:38.030Z,4.20
2022-10-18T01:10:30.666Z,4.20
2022-10-18T01:13:24.863Z,4.19
2022-10-18T01:16:07.645Z,4.18
2022-10-18T01:19:01.209Z,4.18
2022-10-18T01:21:48.605Z,4.24
2022-10-18T01:24:46.360Z,4.24
2022-10-18T01:27:34.866Z,4.20
2022-10-18T01:30:36.843Z,4.17
2022-10-18T01:33:25.081Z,4.20
2022-10-18T01:35:59.351Z,4.10
2022-10-18T01:38:27.505Z,4.06
2022-10-18T01:40:56.439Z,4.15
2022-10-18T01:43:25.035Z,3.99
2022-10-18T01:45:54.862Z,3.98
2022-10-18T01:48:24.151Z,3.90
2022-10-18T01:50:53.196Z,3.91
2022-10-18T01:53:32.826Z,3.93
2022-10-18T01:56:27.448Z,4.06
2022-10-18T01:59:11.950Z,4.02
2022-10-18T02:01:46.903Z,4.07
2022-10-18T02:04:37.705Z,4.05
2022-10-18T02:07:17.203Z,4.09
2022-10-18T02:09:52.756Z,4.02
2022-10-18T02:12:21.819Z,4.04
2022-10-18T02:14:50.641Z,4.08
2022-10-18T02:17:21.282Z,4.05
2022-10-18T02:19:52.535Z,4.02
2022-10-18T02:22:20.807Z,4.00
2022-10-18T02:24:52.250Z,3.79
2022-10-18T02:27:20.109Z,3.87
2022-10-18T02:29:47.957Z,3.83
2022-10-18T02:32:39.974Z,3.82
2022-10-18T02:35:39.237Z,3.78
2022-10-18T02:38:07.886Z,3.80
2022-10-18T02:40:34.894Z,3.77
2022-10-18T02:43:01.747Z,3.72
2022-10-18T02:45:29.029Z,3.65
2022-10-18T02:47:55.871Z,3.63
2022-10-18T02:50:22.778Z,3.51
2022-10-18T02:52:49.611Z,3.53
2022-10-18T02:55:16.823Z,3.59
2022-10-18T02:57:43.833Z,3.62
2022-10-18T03:00:11.255Z,3.60
2022-10-18T03:02:38.102Z,3.61
2022-10-18T03:05:05.214Z,3.60
2022-10-18T03:07:32.172Z,3.56
2022-10-18T03:09:59.131Z,3.53
2022-10-18T03:12:25.889Z,3.52
2022-10-18T03:14:52.733Z,3.52
2022-10-18T03:17:19.586Z,3.51
2022-10-18T03:19:46.385Z,3.50
2022-10-18T03:22:13.207Z,3.46
2022-10-18T03:24:40.045Z,3.39
2022-10-18T03:27:06.978Z,3.42
2022-10-18T03:29:33.716Z,3.38
2022-10-18T03:32:00.495Z,3.32
2022-10-18T03:34:27.292Z,3.29
2022-10-18T03:36:55.110Z,3.30
2022-10-18T03:39:21.917Z,3.26
2022-10-18T03:41:48.798Z,3.26
2022-10-18T03:44:15.554Z,3.26
2022-10-18T03:46:42.355Z,3.25
2022-10-18T03:49:09.119Z,3.16
2022-10-18T03:51:36.001Z,3.17
2022-10-18T03:54:02.900Z,3.21
2022-10-18T03:56:29.729Z,3.19
2022-10-18T03:58:57.303Z,3.15
2022-10-18T04:01:24.206Z,3.14
2022-10-18T04:03:51.052Z,3.10
2022-10-18T04:06:17.822Z,3.05
2022-10-18T04:08:44.622Z,3.07
2022-10-18T04:11:12.260Z,2.96
2022-10-18T04:13:39.323Z,3.07
2022-10-18T04:16:06.324Z,3.08
2022-10-18T04:18:33.179Z,3.00
2022-10-18T04:20:59.979Z,3.07
2022-10-18T04:23:26.763Z,3.03
2022-10-18T04:25:53.557Z,3.05
2022-10-18T04:28:20.370Z,3.06
2022-10-18T04:30:53.879Z,3.03
2022-10-18T04:33:20.745Z,3.07
2022-10-18T04:35:50.911Z,3.05
2022-10-18T04:38:17.725Z,3.05
2022-10-18T04:40:44.536Z,3.05
2022-10-18T04:43:11.364Z,3.04
2022-10-18T04:45:38.302Z,3.01
2022-10-18T04:48:05.304Z,3.09
2022-10-18T04:50:32.212Z,3.02
2022-10-18T04:52:59.215Z,3.00
2022-10-18T04:55:26.143Z,2.94
2022-10-18T04:57:53.774Z,2.92
2022-10-18T05:00:21.020Z,2.96
2022-10-18T05:02:47.825Z,2.96
2022-10-18T05:05:14.770Z,3.05
2022-10-18T05:07:41.841Z,3.10
2022-10-18T05:10:16.473Z,3.17
2022-10-18T05:12:43.992Z,3.18
2022-10-18T05:15:10.926Z,3.23
2022-10-18T05:17:37.760Z,3.20
2022-10-18T05:20:05.107Z,3.23
2022-10-18T05:22:32.317Z,3.18
2022-10-18T05:24:59.295Z,3.33
2022-10-18T05:27:26.144Z,3.43
2022-10-18T05:29:52.981Z,3.50
2022-10-18T05:32:19.930Z,3.58
2022-10-18T05:34:46.740Z,3.64
2022-10-18T05:37:13.973Z,3.61
2022-10-18T05:39:40.871Z,3.59
2022-10-18T05:42:08.865Z,3.50
2022-10-18T05:44:35.742Z,3.57
2022-10-18T05:47:02.563Z,3.61
2022-10-18T05:49:29.394Z,3.63
2022-10-18T05:51:56.299Z,3.73
2022-10-18T05:54:23.197Z,3.73
2022-10-18T05:56:49.972Z,3.79
2022-10-18T05:59:16.777Z,3.86
2022-10-18T06:01:44.091Z,3.91
2022-10-18T06:04:11.109Z,3.96
2022-10-18T06:06:39.265Z,4.04
2022-10-18T06:09:08.200Z,4.13
2022-10-18T06:11:37.052Z,4.28
2022-10-18T06:14:04.504Z,4.40
2022-10-18T06:16:32.546Z,4.50
2022-10-18T06:19:00.241Z,4.62
2022-10-18T06:21:27.557Z,4.72
2022-10-18T06:23:56.970Z,4.88
2022-10-18T06:26:24.606Z,4.98
2022-10-18T06:28:51.620Z,5.06
2022-10-18T06:31:21.413Z,5.19
2022-10-18T06:33:48.675Z,5.35
2022-10-18T06:36:22.414Z,5.49
2022-10-18T06:38:49.908Z,5.65
2022-10-18T06:41:18.185Z,5.76
2022-10-18T06:43:52.058Z,5.87
2022-10-18T06:46:19.919Z,5.94
2022-10-18T06:48:47.233Z,6.04
2022-10-18T06:51:15.380Z,6.13
2022-10-18T06:53:44.341Z,6.15
2022-10-18T06:56:15.570Z,6.25
2022-10-18T06:58:42.366Z,6.28
2022-10-18T07:01:12.891Z,6.36
2022-10-18T07:03:40.205Z,6.49
2022-10-18T07:06:11.409Z,6.62
2022-10-18T07:08:39.495Z,6.71
2022-10-18T07:11:07.807Z,6.87
2022-10-18T07:13:35.307Z,6.91
2022-10-18T07:16:14.096Z,6.94
2022-10-18T07:18:46.809Z,7.04
2022-10-18T07:21:15.222Z,7.07
2022-10-18T07:23:49.479Z,7.08
2022-10-18T07:26:21.401Z,7.11
2022-10-18T07:28:51.625Z,7.17
2022-10-18T07:31:19.010Z,7.25
2022-10-18T07:33:45.935Z,7.41
2022-10-18T07:36:13.924Z,7.47
2022-10-18T07:38:41.415Z,8.00
2022-10-18T07:41:10.490Z,8.15
2022-10-18T07:43:37.439Z,8.36
2022-10-18T07:46:06.137Z,8.39
2022-10-18T07:48:33.303Z,8.44
2022-10-18T07:51:01.894Z,8.38
2022-10-18T07:53:29.879Z,8.63
2022-10-18T07:56:03.529Z,8.54
2022-10-18T07:58:34.687Z,8.99
2022-10-18T08:01:06.411Z,9.25
2022-10-18T08:03:33.741Z,9.50
2022-10-18T08:06:00.719Z,9.74
2022-10-18T08:08:28.536Z,10.00
2022-10-18T08:10:55.612Z,10.31
2022-10-18T08:13:22.562Z,10.46
2022-10-18T08:15:49.388Z,10.77
2022-10-18T08:18:16.277Z,10.97
2022-10-18T08:20:46.683Z,11.42
2022-10-18T08:23:13.470Z,11.70
2022-10-18T08:25:42.157Z,12.02
2022-10-18T08:28:09.116Z,12.31
2022-10-18T08:30:36.491Z,12.67
2022-10-18T08:33:04.233Z,12.88
2022-10-18T08:35:32.108Z,13.00
2022-10-18T08:37:59.517Z,12.95
2022-10-18T08:40:27.909Z,13.05
2022-10-18T08:43:07.275Z,13.19
2022-10-18T08:45:42.345Z,13.30
2022-10-18T08:48:21.981Z,13.55
2022-10-18T08:50:50.458Z,13.76
2022-10-18T08:53:39.285Z,13.84
2022-10-18T08:56:21.683Z,13.81
2022-10-18T08:58:48.835Z,13.90
2022-10-18T09:01:27.818Z,14.05
2022-10-18T09:04:15.492Z,14.08
2022-10-18T09:06:52.575Z,14.33
2022-10-18T09:09:41.139Z,14.45
2022-10-18T09:12:13.888Z,14.59
2022-10-18T09:14:49.819Z,14.66
2022-10-18T09:17:44.107Z,14.85
2022-10-18T09:20:24.929Z,14.78
2022-10-18T09:23:38.236Z,14.70
2022-10-18T09:26:16.226Z,14.76
2022-10-18T09:29:07.650Z,15.08
2022-10-18T09:31:50.310Z,15.30
2022-10-18T09:34:38.168Z,15.50
2022-10-18T09:37:05.382Z,15.67
2022-10-18T09:39:38.032Z,15.86
2022-10-18T09:42:26.691Z,16.01
2022-10-18T09:45:03.936Z,16.26
2022-10-18T09:47:41.581Z,16.42
2022-10-18T09:50:25.940Z,16.42
2022-10-18T09:53:26.584Z,16.70
2022-10-18T09:56:02.175Z,17.04
2022-10-18T09:58:44.736Z,17.29
2022-10-18T10:01:15.960Z,17.56
2022-10-18T10:03:43.110Z,17.81
2022-10-18T10:06:31.476Z,17.92
2022-10-18T10:09:14.810Z,17.97
2022-10-18T10:11:46.012Z,18.05
2022-10-18T10:17:07.449Z,18.22
2022-10-18T10:19:56.930Z,18.43
2022-10-18T10:22:39.100Z,18.64
2022-10-18T10:25:07.780Z,18.53
2022-10-18T10:27:44.177Z,18.51
2022-10-18T10:30:38.618Z,18.99
2022-10-18T10:33:06.643Z,19.19
2022-10-18T10:35:53.020Z,19.29
2022-10-18T10:38:29.460Z,19.29
2022-10-18T10:40:57.246Z,19.21
2022-10-18T10:43:40.012Z,19.19
2022-10-18T10:46:10.679Z,19.35
2022-10-18T10:49:03.272Z,19.62
2022-10-18T10:51:40.905Z,19.65
2022-10-18T10:54:18.677Z,19.89
2022-10-18T10:56:54.684Z,20.25
2022-10-18T10:59:24.209Z,20.42
2022-10-18T11:02:20.777Z,20.83
2022-10-18T11:04:52.293Z,21.13
2022-10-18T11:07:36.710Z,21.39
2022-10-18T11:10:30.992Z,21.47
2022-10-18T11:13:27.106Z,21.65
2022-10-18T11:16:00.583Z,21.39
2022-10-18T11:18:34.112Z,21.13
2022-10-18T11:21:08.813Z,20.75
2022-10-18T11:23:38.558Z,20.80
2022-10-18T11:26:11.403Z,20.78
2022-10-18T11:29:16.904Z,20.90
2022-10-18T11:31:51.058Z,21.18
2022-10-18T11:34:43.524Z,21.60
2022-10-18T11:37:28.641Z,21.92
2022-10-18T11:40:29.376Z,21.87
2022-10-18T11:43:38.906Z,22.03
2022-10-18T11:46:11.929Z,22.35
2022-10-18T11:48:58.180Z,22.40
2022-10-18T11:51:56.073Z,22.49
2022-10-18T11:54:34.483Z,22.51
2022-10-18T11:57:42.832Z,22.51
2022-10-18T12:00:21.388Z,22.40
2022-10-18T12:02:54.434Z,22.08
2022-10-18T12:05:23.947Z,22.00
2022-10-18T12:08:18.601Z,22.14
2022-10-18T12:11:06.700Z,22.24
2022-10-18T12:13:47.937Z,22.40
2022-10-18T12:16:16.923Z,22.41
2022-10-18T12:18:56.631Z,22.50
2022-10-18T12:21:26.719Z,22.45
2022-10-18T12:23:56.521Z,22.71
2022-10-18T12:26:26.153Z,22.70
2022-10-18T12:29:35.162Z,22.69
2022-10-18T12:32:06.040Z,22.70
2022-10-18T12:34:39.001Z,22.68
2022-10-18T12:37:17.681Z,22.61
2022-10-18T12:40:05.432Z,22.67
2022-10-18T12:42:41.763Z,22.65
2022-10-18T12:45:33.457Z,22.80
2022-10-18T12:48:06.973Z,22.76
2022-10-18T12:50:38.405Z,22.83
2022-10-18T12:53:23.102Z,22.89
2022-10-18T12:55:52.041Z,22.88
2022-10-18T12:58:29.588Z,22.77
2022-10-18T13:00:58.403Z,22.67
2022-10-18T13:03:25.048Z,22.71
2022-10-18T13:06:02.907Z,22.81
2022-10-18T13:08:38.470Z,23.10
2022-10-18T13:11:08.184Z,23.08
2022-10-18T13:13:56.819Z,23.11
2022-10-18T13:16:23.613Z,23.01
2022-10-18T13:19:10.198Z,23.05
2022-10-18T13:21:54.965Z,23.38
2022-10-18T13:24:35.683Z,23.60
2022-10-18T13:27:35.600Z,23.62
2022-10-18T13:30:03.328Z,23.65
2022-10-18T13:32:58.801Z,23.40
2022-10-18T13:35:46.338Z,23.22
2022-10-18T13:38:39.040Z,23.14
2022-10-18T13:41:09.339Z,23.11
2022-10-18T13:44:14.560Z,23.11
2022-10-18T13:46:47.960Z,23.17
2022-10-18T13:49:17.672Z,23.02
2022-10-18T13:51:53.647Z,22.81
2022-10-18T13:54:38.753Z,22.80
2022-10-18T13:57:23.905Z,23.21
2022-10-18T14:00:02.983Z,23.41
2022-10-18T14:03:27.134Z,23.30
2022-10-18T14:06:15.535Z,23.15
2022-10-18T14:08:44.781Z,23.16
2022-10-18T14:11:36.300Z,23.29
2022-10-18T14:14:30.120Z,23.49
2022-10-18T14:17:06.945Z,23.60
2022-10-18T14:19:56.789Z,23.59
2022-10-18T14:22:37.131Z,23.65
2022-10-18T14:25:04.325Z,23.81
2022-10-18T14:27:33.105Z,24.09
2022-10-18T14:30:20.777Z,23.85
2022-10-18T14:32:50.627Z,23.61
2022-10-18T14:35:39.169Z,23.48
2022-10-18T14:38:06.867Z,23.56
2022-10-18T14:40:39.204Z,23.60
2022-10-18T14:43:12.365Z,23.77
2022-10-18T14:45:41.054Z,23.86
2022-10-18T14:48:18.163Z,23.70
2022-10-18T14:50:49.610Z,23.46
2022-10-18T14:53:22.413Z,23.20
2022-10-18T14:56:01.392Z,22.65
2022-10-18T14:58:29.298Z,21.96
2022-10-18T15:00:58.931Z,21.45
2022-10-18T15:03:28.796Z,21.07
2022-10-18T15:06:00.361Z,20.67
2022-10-18T15:08:37.482Z,20.38
2022-10-18T15:11:06.112Z,20.13
2022-10-18T15:13:44.945Z,19.88
2022-10-18T15:16:21.330Z,19.61
2022-10-18T15:19:12.568Z,19.28
2022-10-18T15:22:30.919Z,18.92
2022-10-18T15:25:15.122Z,18.60
2022-10-18T15:27:48.214Z,18.52
2022-10-18T15:30:28.534Z,18.35
2022-10-18T15:33:02.266Z,18.13
2022-10-18T15:35:35.539Z,17.87
2022-10-18T15:38:27.667Z,17.72
2022-10-18T15:40:55.127Z,17.56
2022-10-18T15:43:24.807Z,17.47
2022-10-18T15:46:01.716Z,17.37
2022-10-18T15:48:40.658Z,17.28
2022-10-18T15:51:12.958Z,17.19
2022-10-18T15:53:51.496Z,17.04
2022-10-18T15:56:32.272Z,16.96
2022-10-18T15:59:20.788Z,16.85
2022-10-18T16:01:47.814Z,16.75
2022-10-18T16:04:23.262Z,16.69
2022-10-18T16:06:50.217Z,16.53
2022-10-18T16:09:19.529Z,16.48
2022-10-18T16:11:47.387Z,16.40
2022-10-18T16:14:14.305Z,16.37
2022-10-18T16:16:41.511Z,16.33
2022-10-18T16:19:10.343Z,16.20
2022-10-18T16:21:39.422Z,16.14
2022-10-18T16:24:06.688Z,16.03
2022-10-18T16:26:35.034Z,15.85
2022-10-18T16:29:02.056Z,15.63
2022-10-18T16:31:33.045Z,15.37
2022-10-18T16:34:00.836Z,15.18
2022-10-18T16:36:32.806Z,15.03
2022-10-18T16:39:04.703Z,14.94
2022-10-18T16:41:31.502Z,14.83
2022-10-18T16:43:58.386Z,14.74
2022-10-18T16:46:29.665Z,14.69
2022-10-18T16:48:57.359Z,14.67
2022-10-18T16:51:24.740Z,14.44
2022-10-18T16:53:53.603Z,14.18
2022-10-18T16:56:26.279Z,13.94
2022-10-18T16:58:53.197Z,13.69
2022-10-18T17:01:22.631Z,13.57
2022-10-18T17:03:52.275Z,13.24
2022-10-18T17:06:28.318Z,13.17
2022-10-18T17:08:56.871Z,12.98
2022-10-18T17:11:26.251Z,12.91
2022-10-18T17:13:53.294Z,12.74
2022-10-18T17:16:32.137Z,12.59
2022-10-18T17:19:01.609Z,12.34
2022-10-18T17:21:29.685Z,12.21
2022-10-18T17:24:00.654Z,12.05
2022-10-18T17:26:29.628Z,11.99
2022-10-18T17:29:03.986Z,11.88
2022-10-18T17:31:31.692Z,11.78
2022-10-18T17:34:01.793Z,11.63
2022-10-18T17:36:30.993Z,11.50
2022-10-18T17:38:58.390Z,11.34
2022-10-18T17:41:25.438Z,11.26
2022-10-18T17:43:52.305Z,11.15
2022-10-18T17:46:19.781Z,11.05
2022-10-18T17:48:47.147Z,11.05
2022-10-18T17:51:16.598Z,11.05
2022-10-18T17:53:43.942Z,10.97
2022-10-18T17:56:12.241Z,10.90
2022-10-18T17:58:39.317Z,10.86
2022-10-18T18:01:15.561Z,10.77
2022-10-18T18:03:42.941Z,10.67
2022-10-18T18:06:17.032Z,10.56
2022-10-18T18:08:44.896Z,10.42
2022-10-18T18:11:12.183Z,10.34
2022-10-18T18:13:39.297Z,10.18
2022-10-18T18:16:17.955Z,10.18
2022-10-18T18:18:47.144Z,10.16
2022-10-18T18:21:14.236Z,10.01
2022-10-18T18:23:41.632Z,10.02
2022-10-18T18:26:08.938Z,10.02
2022-10-18T18:28:36.602Z,9.92
2022-10-18T18:31:14.777Z,9.87
2022-10-18T18:33:42.365Z,9.84
2022-10-18T18:36:12.079Z,9.82
2022-10-18T18:38:42.947Z,9.76
2022-10-18T18:41:13.027Z,9.76
2022-10-18T18:43:42.488Z,9.65
2022-10-18T18:46:10.593Z,9.60
2022-10-18T18:48:37.889Z,9.50
2022-10-18T18:51:06.164Z,9.46
2022-10-18T18:53:33.055Z,9.30
2022-10-18T18:56:05.830Z,9.19
2022-10-18T18:58:34.884Z,9.09
2022-10-18T19:01:11.204Z,9.04
2022-10-18T19:03:40.974Z,8.96
2022-10-18T19:06:11.101Z,8.91
2022-10-18T19:08:40.064Z,8.86
2022-10-18T19:11:09.337Z,8.81
2022-10-18T19:13:36.721Z,8.70
2022-10-18T19:16:26.848Z,8.67
2022-10-18T19:18:55.322Z,8.62
2022-10-18T19:21:24.218Z,8.53
2022-10-18T19:23:51.574Z,8.45
2022-10-18T19:26:25.872Z,8.39
2022-10-18T19:28:52.857Z,8.39
2022-10-18T19:31:20.197Z,8.25
2022-10-18T19:33:58.962Z,8.28
2022-10-18T19:36:26.924Z,8.25
2022-10-18T19:38:53.819Z,8.15
2022-10-18T19:41:21.614Z,8.13
2022-10-18T19:43:48.577Z,8.03
2022-10-18T19:46:15.510Z,7.97
2022-10-18T19:48:42.698Z,7.89
2022-10-18T19:51:17.381Z,7.83
2022-10-18T19:53:48.225Z,7.81
2022-10-18T19:56:21.053Z,7.79
2022-10-18T19:58:48.356Z,7.75
2022-10-18T20:01:16.454Z,7.74
2022-10-18T20:03:44.594Z,7.70
2022-10-18T20:06:11.647Z,7.65
2022-10-18T20:08:39.483Z,7.68
2022-10-18T20:11:10.281Z,7.69
2022-10-18T20:13:38.083Z,7.69
2022-10-18T20:16:07.425Z,7.65
2022-10-18T20:18:34.761Z,7.59
2022-10-18T20:21:05.839Z,7.67
2022-10-18T20:23:34.785Z,7.64
2022-10-18T20:26:04.756Z,7.54
2022-10-18T20:28:32.226Z,7.51
2022-10-18T20:31:11.375Z,7.50
2022-10-18T20:33:38.852Z,7.42
2022-10-18T20:36:17.617Z,7.34
2022-10-18T20:38:46.475Z,7.27
2022-10-18T20:41:24.865Z,7.22
2022-10-18T20:43:53.496Z,7.17
2022-10-18T20:46:21.297Z,7.09
2022-10-18T20:48:50.009Z,7.03
2022-10-18T20:51:19.759Z,7.00
2022-10-18T20:53:47.047Z,6.99
2022-10-18T20:56:20.540Z,6.94
2022-10-18T20:58:50.058Z,6.87
2022-10-18T21:01:18.468Z,6.84
2022-10-18T21:03:47.031Z,6.81
2022-10-18T21:06:18.400Z,6.78
2022-10-18T21:08:46.123Z,6.70
2022-10-18T21:11:14.451Z,6.70
2022-10-18T21:13:41.449Z,6.59
2022-10-18T21:16:08.720Z,6.57
2022-10-18T21:18:37.151Z,6.50
2022-10-18T21:21:16.242Z,6.46
2022-10-18T21:23:44.028Z,6.42
2022-10-18T21:26:16.021Z,6.35
2022-10-18T21:28:44.248Z,6.30
2022-10-18T21:31:22.986Z,6.28
2022-10-18T21:33:54.492Z,6.23
2022-10-18T21:36:22.192Z,6.14
2022-10-18T21:38:50.269Z,6.10
2022-10-18T21:41:18.723Z,5.92
2022-10-18T21:43:53.460Z,6.05
2022-10-18T21:46:22.504Z,6.05
2022-10-18T21:48:53.716Z,6.04
2022-10-18T21:51:22.695Z,6.03
2022-10-18T21:53:51.933Z,6.02
2022-10-18T21:56:21.847Z,6.01
2022-10-18T21:58:49.153Z,6.00
2022-10-18T22:01:28.109Z,5.99
2022-10-18T22:03:57.013Z,5.95
2022-10-18T22:06:24.977Z,5.94
2022-10-18T22:08:54.840Z,5.91
2022-10-18T22:11:25.138Z,5.87
2022-10-18T22:13:53.093Z,5.87
2022-10-18T22:16:20.095Z,5.84
2022-10-18T22:18:48.700Z,5.85
2022-10-18T22:21:17.197Z,5.73
2022-10-18T22:23:49.504Z,5.66
2022-10-18T22:26:22.514Z,5.64
2022-10-18T22:28:59.107Z,5.60
2022-10-18T22:31:30.118Z,5.54
2022-10-18T22:33:59.260Z,5.46
2022-10-18T22:36:26.309Z,5.46
2022-10-18T22:38:53.843Z,5.47
2022-10-18T22:41:22.250Z,5.45
2022-10-18T22:43:52.563Z,5.36
2022-10-18T22:46:19.918Z,5.37
2022-10-18T22:48:47.349Z,5.34
2022-10-18T22:51:15.757Z,5.30
2022-10-18T22:53:42.631Z,5.34
2022-10-18T22:56:12.832Z,5.33
2022-10-18T22:58:39.688Z,5.29
2022-10-18T23:01:11.718Z,5.32
2022-10-18T23:03:39.266Z,5.30
2022-10-18T23:06:17.329Z,5.26
2022-10-18T23:08:44.180Z,5.25
2022-10-18T23:11:11.037Z,5.25
2022-10-18T23:13:39.586Z,5.19
2022-10-18T23:16:06.894Z,5.16
2022-10-18T23:18:34.055Z,5.11
2022-10-18T23:21:03.291Z,5.12
2022-10-18T23:23:34.848Z,5.10
2022-10-18T23:26:07.356Z,5.07
2022-10-18T23:28:38.453Z,4.94
2022-10-18T23:31:08.006Z,4.85
2022-10-18T23:33:35.025Z,4.81
2022-10-18T23:36:02.310Z,4.81
2022-10-18T23:38:30.992Z,4.75
2022-10-18T23:40:58.347Z,4.75
2022-10-18T23:43:25.544Z,4.78
2022-10-18T23:45:52.381Z,4.74
2022-10-18T23:48:19.370Z,4.80
2022-10-18T23:50:46.314Z,4.81
2022-10-18T23:53:13.212Z,4.76
2022-10-18T23:55:39.988Z,4.70
2022-10-18T23:58:06.891Z,4.76
